Champion — WCZ7631 — position and weather

sailwx.info

Track history (hours):
 
Tides and Currents Weather Stations Pressure Air Temp Water Temp Dewpoint Dewpoint Depression Visibility Wind Speed Wind Dir Waves Ship Positions

Champion

Owner: MC CULLEY MARINE SERVICES INC, FORT PIERCE, FL. More information available from US FCC via Universal Licensing System and Coast Guard Vessel Documentation Center.

Last reported at 2014-Dec-20 19:30 UTC. Time now 2014-Dec-20 20:12 UTC.
Position N 26°48' W 080°03'.

Length 20 m; draft 1.7 m.

Type: Towing. MMSI: 367005250.

Date/timePositionNaut miles runAvg speedWind from/ knotsBaromVisibWave heightAir tempDewpointWater temp
2014-Dec-20 19:30N 26°48' W 080°03'2 0.8
2014-Dec-20 17:33N 26°48' W 080°01'7 7.0
2014-Dec-20 16:34N 26°55' W 080°03'8 7.6
2014-Dec-20 15:33N 27°03' W 080°05'  
2014-Dec-16 06:33N 26°48' W 079°57'4 3.5
2014-Dec-16 05:33N 26°50' W 080°00'4 3.7
2014-Dec-16 04:33N 26°54' W 080°01'4 3.8
2014-Dec-16 03:32N 26°58' W 080°02'4 3.7
2014-Dec-16 02:33N 27°01' W 080°03'  
Track history (hours):
 
Tides and Currents Weather Stations Pressure Air Temp Water Temp Dewpoint Dewpoint Depression Visibility Wind Speed Wind Dir Waves Ship Positions

Champion

Owner: MC CULLEY MARINE SERVICES INC, FORT PIERCE, FL. More information available from US FCC via Universal Licensing System and Coast Guard Vessel Documentation Center.

Last reported at 2014-Dec-20 19:30 UTC. Time now 2014-Dec-20 20:12 UTC.
Position N 26°48' W 080°03'.

Length 20 m; draft 1.7 m.

Type: Towing. MMSI: 367005250.

Date/timePositionNaut miles runAvg speedWind from/ knotsBaromVisibWave heightAir tempDewpointWater temp
2014-Dec-20 19:30N 26°48' W 080°03'2 0.8
2014-Dec-20 17:33N 26°48' W 080°01'7 7.0
2014-Dec-20 16:34N 26°55' W 080°03'8 7.6
2014-Dec-20 15:33N 27°03' W 080°05'  
2014-Dec-16 06:33N 26°48' W 079°57'4 3.5
2014-Dec-16 05:33N 26°50' W 080°00'4 3.7
2014-Dec-16 04:33N 26°54' W 080°01'4 3.8
2014-Dec-16 03:32N 26°58' W 080°02'4 3.7
2014-Dec-16 02:33N 27°01' W 080°03'  

Dump ship's entire track history